createdAt,value
2019-06-20T00:00:08.093Z,0.00
2019-06-20T00:01:08.066Z,0.00
2019-06-20T00:02:08.052Z,0.00
2019-06-20T00:03:08.038Z,0.00
2019-06-20T00:04:08.026Z,0.00
2019-06-20T00:05:08.008Z,0.00
2019-06-20T00:06:07.996Z,0.00
2019-06-20T00:07:07.985Z,0.00
2019-06-20T00:08:07.966Z,0.00
2019-06-20T00:09:07.966Z,0.00
2019-06-20T00:10:07.939Z,0.00
2019-06-20T00:11:07.931Z,0.00
2019-06-20T00:12:07.915Z,0.00
2019-06-20T00:13:07.897Z,0.00
2019-06-20T00:14:07.883Z,0.00
2019-06-20T00:15:07.871Z,0.00
2019-06-20T00:16:07.857Z,0.00
2019-06-20T00:17:07.845Z,0.00
2019-06-20T00:18:07.830Z,0.00
2019-06-20T00:19:07.815Z,0.00
2019-06-20T00:20:07.804Z,0.00
2019-06-20T00:21:07.804Z,0.00
2019-06-20T00:22:07.773Z,0.00
2019-06-20T00:23:07.766Z,0.00
2019-06-20T00:24:07.757Z,0.00
2019-06-20T00:25:07.732Z,0.00
2019-06-20T00:26:07.718Z,0.00
2019-06-20T00:27:07.708Z,0.00
2019-06-20T00:28:07.697Z,0.00
2019-06-20T00:29:07.733Z,0.00
2019-06-20T00:30:07.668Z,0.00
2019-06-20T00:31:07.659Z,0.00
2019-06-20T00:32:07.635Z,0.00
2019-06-20T00:33:07.626Z,0.00
2019-06-20T00:34:07.607Z,0.00
2019-06-20T00:35:07.594Z,0.00
2019-06-20T00:36:07.580Z,0.00
2019-06-20T00:37:07.588Z,0.00
2019-06-20T00:38:07.552Z,0.00
2019-06-20T00:39:07.537Z,0.00
2019-06-20T00:40:07.523Z,0.00
2019-06-20T00:41:07.510Z,0.00
2019-06-20T00:42:07.497Z,0.00
2019-06-20T00:43:17.044Z,0.00
2019-06-20T00:44:07.470Z,0.00
2019-06-20T00:45:07.456Z,0.00
2019-06-20T00:46:07.446Z,0.00
2019-06-20T00:47:07.425Z,0.00
2019-06-20T00:48:07.425Z,0.00
2019-06-20T00:49:07.399Z,0.00
2019-06-20T00:50:07.392Z,0.00
2019-06-20T00:51:07.372Z,0.00
2019-06-20T00:52:07.396Z,0.00
2019-06-20T00:53:07.352Z,0.00
2019-06-20T00:54:07.334Z,0.00
2019-06-20T00:55:07.314Z,0.00
2019-06-20T00:56:07.300Z,0.00
2019-06-20T00:57:07.289Z,0.00
2019-06-20T00:58:07.271Z,0.00
2019-06-20T00:59:07.260Z,0.00
2019-06-20T01:00:07.245Z,0.00
2019-06-20T01:01:07.229Z,0.00
2019-06-20T01:02:07.229Z,0.00
2019-06-20T01:03:07.224Z,0.00
2019-06-20T01:04:07.190Z,0.00
2019-06-20T01:05:07.174Z,0.00
2019-06-20T01:06:07.180Z,0.00
2019-06-20T01:07:07.146Z,0.00
2019-06-20T01:08:07.132Z,0.00
2019-06-20T01:09:07.120Z,0.00
2019-06-20T01:10:07.104Z,0.00
2019-06-20T01:11:07.091Z,0.00
2019-06-20T01:12:07.074Z,0.00
2019-06-20T01:13:07.060Z,0.00
2019-06-20T01:14:07.055Z,0.00
2019-06-20T01:15:07.036Z,0.00
2019-06-20T01:16:07.021Z,0.00
2019-06-20T01:17:07.004Z,0.00
2019-06-20T01:18:06.993Z,0.00
2019-06-20T01:19:06.973Z,0.00
2019-06-20T01:20:06.964Z,0.00
2019-06-20T01:21:06.949Z,0.00
2019-06-20T01:22:06.937Z,0.00
2019-06-20T01:23:06.922Z,0.00
2019-06-20T01:24:06.908Z,0.00
2019-06-20T01:25:06.892Z,0.00
2019-06-20T01:26:06.889Z,0.00
2019-06-20T01:27:06.869Z,0.00
2019-06-20T01:28:06.851Z,0.00
2019-06-20T01:29:06.838Z,0.00
2019-06-20T01:30:06.824Z,0.00
2019-06-20T01:31:06.809Z,0.00
2019-06-20T01:32:06.809Z,0.00
2019-06-20T01:33:06.780Z,0.00
2019-06-20T01:34:06.768Z,0.00
2019-06-20T01:35:06.770Z,0.00
2019-06-20T01:36:06.740Z,0.00
2019-06-20T01:37:06.723Z,0.00
2019-06-20T01:38:06.711Z,0.00
2019-06-20T01:39:06.699Z,0.00
2019-06-20T01:40:06.685Z,0.00
2019-06-20T01:41:06.678Z,0.00
2019-06-20T01:42:06.659Z,0.00
2019-06-20T01:43:06.640Z,0.00
2019-06-20T01:44:06.625Z,0.00
2019-06-20T01:45:06.613Z,0.00
2019-06-20T01:46:06.595Z,0.00
2019-06-20T01:47:06.582Z,0.00
2019-06-20T01:48:06.565Z,0.00
2019-06-20T01:49:06.552Z,0.00
2019-06-20T01:50:06.544Z,0.00
2019-06-20T01:51:06.525Z,0.00
2019-06-20T01:52:06.512Z,0.00
2019-06-20T01:53:06.508Z,0.00
2019-06-20T01:54:06.481Z,0.00
2019-06-20T01:55:06.471Z,0.00
2019-06-20T01:56:06.457Z,0.00
2019-06-20T01:57:06.449Z,0.00
2019-06-20T01:58:06.444Z,0.00
2019-06-20T01:59:06.410Z,0.00
2019-06-20T02:00:06.400Z,0.00
2019-06-20T02:01:06.402Z,0.00
2019-06-20T02:02:06.369Z,0.00
2019-06-20T02:03:06.357Z,0.00
2019-06-20T02:04:06.347Z,0.00
2019-06-20T02:05:06.330Z,0.00
2019-06-20T02:06:06.312Z,0.00
2019-06-20T02:07:06.296Z,0.00
2019-06-20T02:08:06.296Z,0.00
2019-06-20T02:09:06.270Z,0.00
2019-06-20T02:10:06.256Z,0.00
2019-06-20T02:11:06.242Z,0.00
2019-06-20T02:12:06.230Z,0.00
2019-06-20T02:13:06.211Z,0.00
2019-06-20T02:14:07.473Z,0.00
2019-06-20T02:15:06.191Z,0.00
2019-06-20T02:16:06.171Z,0.00
2019-06-20T02:17:06.147Z,0.00
2019-06-20T02:18:06.235Z,0.00
2019-06-20T02:19:06.125Z,0.00
2019-06-20T02:20:06.116Z,0.00
2019-06-20T02:21:06.108Z,0.00
2019-06-20T02:22:06.085Z,0.00
2019-06-20T02:23:06.072Z,0.00
2019-06-20T02:24:06.058Z,0.00
2019-06-20T02:25:06.042Z,0.00
2019-06-20T02:26:06.027Z,0.00
2019-06-20T02:27:06.014Z,0.00
2019-06-20T02:28:06.013Z,0.00
2019-06-20T02:29:05.986Z,0.00
2019-06-20T02:30:05.987Z,0.00
2019-06-20T02:31:05.955Z,0.00
2019-06-20T02:32:05.953Z,0.00
2019-06-20T02:33:05.952Z,0.00
2019-06-20T02:34:05.921Z,0.00
2019-06-20T02:35:05.904Z,0.00
2019-06-20T02:36:05.984Z,0.00
2019-06-20T02:37:05.885Z,0.00
2019-06-20T02:38:05.856Z,0.00
2019-06-20T02:39:05.853Z,0.00
2019-06-20T02:40:05.833Z,0.00
2019-06-20T02:41:05.815Z,0.00
2019-06-20T02:42:05.803Z,0.00
2019-06-20T02:43:05.784Z,0.00
2019-06-20T02:44:05.770Z,4.00
2019-06-20T02:45:05.760Z,4.00
2019-06-20T02:46:05.736Z,4.00
2019-06-20T02:47:05.735Z,4.00
2019-06-20T02:48:05.718Z,4.00
2019-06-20T02:49:05.697Z,4.00
2019-06-20T02:50:05.693Z,4.00
2019-06-20T02:51:05.672Z,4.00
2019-06-20T02:52:05.655Z,8.00
2019-06-20T02:53:05.643Z,8.00
2019-06-20T02:54:05.640Z,4.00
2019-06-20T02:55:05.615Z,8.00
2019-06-20T02:56:05.624Z,12.00
2019-06-20T02:57:05.588Z,12.00
2019-06-20T02:58:05.594Z,12.00
2019-06-20T02:59:05.571Z,12.00
2019-06-20T03:00:05.553Z,20.00
2019-06-20T03:01:05.526Z,20.00
2019-06-20T03:02:05.521Z,24.00
2019-06-20T03:03:05.509Z,28.00
2019-06-20T03:04:05.504Z,32.00
2019-06-20T03:05:05.472Z,36.00
2019-06-20T03:06:05.457Z,36.00
2019-06-20T03:07:05.446Z,40.00
2019-06-20T03:08:05.429Z,44.00
2019-06-20T03:09:05.414Z,52.00
2019-06-20T03:10:05.396Z,60.00
2019-06-20T03:11:05.384Z,68.00
2019-06-20T03:12:05.396Z,76.00
2019-06-20T03:13:05.360Z,80.00
2019-06-20T03:14:05.340Z,88.00
2019-06-20T03:15:05.342Z,96.00
2019-06-20T03:16:05.314Z,104.00
2019-06-20T03:17:05.299Z,116.00
2019-06-20T03:18:05.283Z,128.00
2019-06-20T03:19:05.283Z,140.00
2019-06-20T03:20:05.260Z,156.00
2019-06-20T03:21:05.243Z,172.00
2019-06-20T03:22:05.228Z,196.00
2019-06-20T03:23:05.216Z,212.00
2019-06-20T03:24:05.200Z,232.00
2019-06-20T03:25:05.185Z,252.00
2019-06-20T03:26:05.179Z,268.00
2019-06-20T03:27:05.160Z,284.00
2019-06-20T03:28:05.139Z,296.00
2019-06-20T03:29:05.130Z,304.00
2019-06-20T03:30:05.117Z,316.00
2019-06-20T03:31:05.101Z,332.00
2019-06-20T03:32:05.098Z,356.00
2019-06-20T03:33:05.071Z,388.00
2019-06-20T03:34:05.063Z,436.00
2019-06-20T03:35:05.042Z,488.00
2019-06-20T03:36:05.039Z,560.00
2019-06-20T03:37:05.016Z,648.00
2019-06-20T03:38:05.000Z,752.00
2019-06-20T03:39:04.984Z,868.00
2019-06-20T03:40:04.974Z,984.00
2019-06-20T03:41:04.958Z,1096.00
2019-06-20T03:42:04.943Z,1216.00
2019-06-20T03:43:04.933Z,1328.00
2019-06-20T03:44:04.937Z,1416.00
2019-06-20T03:45:04.904Z,1468.00
2019-06-20T03:46:04.894Z,1496.00
2019-06-20T03:47:04.873Z,1520.00
2019-06-20T03:48:04.861Z,1544.00
2019-06-20T03:49:04.846Z,1588.00
2019-06-20T03:50:04.892Z,1672.00
2019-06-20T03:51:04.852Z,1808.00
2019-06-20T03:52:04.801Z,1972.00
2019-06-20T03:53:04.791Z,2140.00
2019-06-20T03:54:04.781Z,2296.00
2019-06-20T03:55:04.761Z,2436.00
2019-06-20T03:56:04.755Z,2572.00
2019-06-20T03:57:04.740Z,2712.00
2019-06-20T03:58:04.721Z,2860.00
2019-06-20T03:59:04.705Z,3040.00
2019-06-20T04:00:04.695Z,3236.00
2019-06-20T04:01:04.686Z,3448.00
2019-06-20T04:02:04.667Z,3692.00
2019-06-20T04:03:04.653Z,3884.00
2019-06-20T04:04:04.639Z,3980.00
2019-06-20T04:05:04.626Z,4128.00
2019-06-20T04:06:04.631Z,4352.00
2019-06-20T04:07:04.598Z,4552.00
2019-06-20T04:08:04.589Z,4544.00
2019-06-20T04:09:04.570Z,4508.00
2019-06-20T04:10:04.554Z,4328.00
2019-06-20T04:11:04.551Z,4192.00
2019-06-20T04:12:04.537Z,3976.00
2019-06-20T04:13:04.518Z,3820.00
2019-06-20T04:14:04.509Z,3756.00
2019-06-20T04:15:17.889Z,3656.00
2019-06-20T04:16:04.484Z,3512.00
2019-06-20T04:17:04.476Z,3160.00
2019-06-20T04:18:04.452Z,2912.00
2019-06-20T04:19:04.444Z,3012.00
2019-06-20T04:20:04.430Z,3460.00
2019-06-20T04:21:04.416Z,3712.00
2019-06-20T04:22:04.406Z,3940.00
2019-06-20T04:23:04.388Z,3476.00
2019-06-20T04:24:04.380Z,3796.00
2019-06-20T04:25:04.376Z,4116.00
2019-06-20T04:26:04.361Z,3868.00
2019-06-20T04:27:04.343Z,3300.00
2019-06-20T04:28:04.345Z,2608.00
2019-06-20T04:29:04.318Z,2604.00
2019-06-20T04:30:04.321Z,2604.00
2019-06-20T04:31:04.294Z,2600.00
2019-06-20T04:32:04.283Z,2592.00
2019-06-20T04:33:04.271Z,2592.00
2019-06-20T04:34:04.250Z,2596.00
2019-06-20T04:35:04.247Z,2620.00
2019-06-20T04:36:04.226Z,2672.00
2019-06-20T04:37:04.218Z,2776.00
2019-06-20T04:38:04.207Z,2912.00
2019-06-20T04:39:18.339Z,3064.00
2019-06-20T04:40:04.182Z,3240.00
2019-06-20T04:41:04.167Z,3428.00
2019-06-20T04:42:04.167Z,3624.00
2019-06-20T04:43:04.143Z,3820.00
2019-06-20T04:44:04.132Z,4004.00
2019-06-20T04:45:04.117Z,4172.00
2019-06-20T04:46:04.104Z,4308.00
2019-06-20T04:47:04.092Z,4400.00
2019-06-20T04:48:04.078Z,4452.00
2019-06-20T04:49:04.068Z,4472.00
2019-06-20T04:50:04.061Z,4456.00
2019-06-20T04:51:04.046Z,4424.00
2019-06-20T04:52:04.032Z,4380.00
2019-06-20T04:53:04.015Z,4340.00
2019-06-20T04:54:04.005Z,4352.00
2019-06-20T04:55:03.989Z,4420.00
2019-06-20T04:56:05.802Z,4540.00
2019-06-20T04:57:03.964Z,4732.00
2019-06-20T04:58:03.956Z,4976.00
2019-06-20T04:59:03.939Z,5252.00
2019-06-20T05:00:03.928Z,5540.00
2019-06-20T05:01:03.917Z,5836.00
2019-06-20T05:02:03.895Z,6132.00
2019-06-20T05:03:03.891Z,6440.00
2019-06-20T05:04:03.878Z,6752.00
2019-06-20T05:05:03.863Z,7088.00
2019-06-20T05:06:03.854Z,7500.00
2019-06-20T05:07:03.838Z,7996.00
2019-06-20T05:08:03.936Z,8544.00
2019-06-20T05:09:03.814Z,9140.00
2019-06-20T05:10:03.808Z,9704.00
2019-06-20T05:11:03.790Z,10220.00
2019-06-20T05:12:03.777Z,10636.00
2019-06-20T05:13:03.766Z,11116.00
2019-06-20T05:14:03.755Z,11164.00
2019-06-20T05:15:03.739Z,11472.00
2019-06-20T05:16:03.732Z,11952.00
2019-06-20T05:17:07.033Z,12764.00
2019-06-20T05:18:03.704Z,13624.00
2019-06-20T05:19:03.704Z,14532.00
2019-06-20T05:20:03.685Z,15304.00
2019-06-20T05:21:03.669Z,16672.00
2019-06-20T05:22:03.666Z,16768.00
2019-06-20T05:23:03.651Z,16316.00
2019-06-20T05:24:03.640Z,17280.00
2019-06-20T05:25:03.630Z,17440.00
2019-06-20T05:26:03.619Z,19584.00
2019-06-20T05:27:03.607Z,20736.00
2019-06-20T05:28:03.614Z,21664.00
2019-06-20T05:29:05.501Z,23168.00
2019-06-20T05:30:03.587Z,22080.00
2019-06-20T05:31:03.569Z,25312.00
2019-06-20T05:32:03.588Z,27968.00
2019-06-20T05:33:03.571Z,29760.00
2019-06-20T05:34:03.540Z,32160.00
2019-06-20T05:35:03.545Z,34080.00
2019-06-20T05:36:03.520Z,32960.00
2019-06-20T05:37:03.516Z,46464.00
2019-06-20T05:38:03.501Z,59360.00
2019-06-20T05:39:03.498Z,68640.00
2019-06-20T05:40:03.487Z,61120.00
2019-06-20T05:41:03.480Z,65952.00
2019-06-20T05:42:03.476Z,51072.00
2019-06-20T05:43:03.680Z,64800.00
2019-06-20T05:44:03.467Z,65920.00
2019-06-20T05:45:03.453Z,64832.00
2019-06-20T05:46:09.254Z,62624.00
2019-06-20T05:47:12.584Z,67520.00
2019-06-20T05:48:03.424Z,66848.00
2019-06-20T05:49:03.430Z,62912.00
2019-06-20T05:50:03.417Z,61344.00
2019-06-20T05:51:03.412Z,28640.00
2019-06-20T05:52:03.421Z,26656.00
2019-06-20T05:53:03.406Z,45760.00
2019-06-20T05:54:03.392Z,54560.00
2019-06-20T05:55:03.390Z,57120.00
2019-06-20T05:56:03.378Z,50976.00
2019-06-20T05:57:04.653Z,48800.00
2019-06-20T05:58:03.403Z,47328.00
2019-06-20T05:59:03.388Z,43360.00
2019-06-20T06:00:03.466Z,35744.00
2019-06-20T06:01:03.371Z,28096.00
2019-06-20T06:02:03.347Z,24384.00
2019-06-20T06:03:06.852Z,21152.00
2019-06-20T06:04:03.329Z,21184.00
2019-06-20T06:05:03.323Z,20704.00
2019-06-20T06:06:03.313Z,18112.00
2019-06-20T06:07:03.308Z,16260.00
2019-06-20T06:08:03.801Z,15644.00
2019-06-20T06:09:03.292Z,15480.00
2019-06-20T06:10:04.526Z,14876.00
2019-06-20T06:11:03.278Z,14964.00
2019-06-20T06:12:03.272Z,15276.00
2019-06-20T06:13:03.265Z,16680.00
2019-06-20T06:14:03.255Z,21440.00
2019-06-20T06:15:03.250Z,21248.00
2019-06-20T06:16:03.260Z,21824.00
2019-06-20T06:17:03.633Z,24288.00
2019-06-20T06:18:03.248Z,24864.00
2019-06-20T06:19:03.290Z,28416.00
2019-06-20T06:20:03.220Z,33280.00
2019-06-20T06:21:03.202Z,34464.00
2019-06-20T06:22:03.196Z,28704.00
2019-06-20T06:23:03.205Z,25056.00
2019-06-20T06:24:03.182Z,27552.00
2019-06-20T06:25:03.185Z,23328.00
2019-06-20T06:26:03.162Z,27936.00
2019-06-20T06:27:03.155Z,29504.00
2019-06-20T06:28:03.144Z,26144.00
2019-06-20T06:29:03.137Z,19808.00
2019-06-20T06:30:03.128Z,19648.00
2019-06-20T06:31:03.122Z,20448.00
2019-06-20T06:32:03.118Z,20416.00
2019-06-20T06:33:03.106Z,21216.00
2019-06-20T06:34:03.098Z,28832.00
2019-06-20T06:35:03.094Z,53600.00
2019-06-20T06:36:03.082Z,63328.00
2019-06-20T06:37:03.105Z,64384.00
2019-06-20T06:38:03.066Z,67584.00
2019-06-20T06:39:03.057Z,64288.00
2019-06-20T06:40:03.052Z,50528.00
2019-06-20T06:41:03.043Z,36256.00
2019-06-20T06:42:03.043Z,80512.00
2019-06-20T06:43:03.027Z,91776.00
2019-06-20T06:44:03.022Z,83552.00
2019-06-20T06:45:03.071Z,84192.00
2019-06-20T06:46:03.015Z,79232.00
2019-06-20T06:47:03.005Z,76192.00
2019-06-20T06:48:02.989Z,46080.00
2019-06-20T06:49:02.992Z,65952.00
2019-06-20T06:50:02.993Z,51744.00
2019-06-20T06:51:02.978Z,20736.00
2019-06-20T06:52:03.040Z,25376.00
2019-06-20T06:53:02.968Z,22464.00
2019-06-20T06:54:02.969Z,18432.00
2019-06-20T06:55:02.956Z,23072.00
2019-06-20T06:56:02.994Z,36832.00
2019-06-20T06:57:02.950Z,45920.00
2019-06-20T06:58:02.963Z,49504.00
2019-06-20T06:59:02.930Z,57856.00
2019-06-20T07:00:02.994Z,62432.00
2019-06-20T07:01:02.918Z,32576.00
2019-06-20T07:02:02.912Z,34208.00
2019-06-20T07:03:02.909Z,69344.00
2019-06-20T07:04:02.903Z,58432.00
2019-06-20T07:05:02.896Z,91936.00
2019-06-20T07:06:02.901Z,85760.00
2019-06-20T07:07:02.885Z,86720.00
2019-06-20T07:08:02.895Z,91328.00
2019-06-20T07:09:02.872Z,90400.00
2019-06-20T07:10:02.863Z,94528.00
2019-06-20T07:11:02.858Z,94208.00
2019-06-20T07:12:02.867Z,98272.00
2019-06-20T07:13:02.867Z,99200.00
2019-06-20T07:14:02.844Z,103936.00
2019-06-20T07:15:02.842Z,28640.00
2019-06-20T07:16:02.836Z,52128.00
2019-06-20T07:17:02.835Z,36480.00
2019-06-20T07:18:02.828Z,36640.00
2019-06-20T07:19:02.832Z,47200.00
2019-06-20T07:20:02.822Z,32512.00
2019-06-20T07:21:02.820Z,30528.00
2019-06-20T07:22:02.813Z,30720.00
2019-06-20T07:23:02.813Z,30144.00
2019-06-20T07:24:02.902Z,29728.00
2019-06-20T07:25:02.800Z,34464.00
2019-06-20T07:26:02.836Z,35264.00
2019-06-20T07:27:02.793Z,35872.00
2019-06-20T07:28:02.788Z,42976.00
2019-06-20T07:29:02.784Z,48608.00
2019-06-20T07:30:02.778Z,48064.00
2019-06-20T07:31:02.789Z,36608.00
2019-06-20T07:32:02.807Z,35520.00
2019-06-20T07:33:02.765Z,31168.00
2019-06-20T07:34:02.757Z,27424.00
2019-06-20T07:35:02.769Z,28800.00
2019-06-20T07:36:02.747Z,32704.00
2019-06-20T07:37:02.739Z,42880.00
2019-06-20T07:38:02.735Z,38528.00
2019-06-20T07:39:02.727Z,40192.00
2019-06-20T07:40:02.724Z,39840.00
2019-06-20T07:41:02.715Z,37664.00
2019-06-20T07:42:02.709Z,53856.00
2019-06-20T07:43:02.723Z,46624.00
2019-06-20T07:44:02.725Z,41472.00
2019-06-20T07:45:02.717Z,33152.00
2019-06-20T07:46:03.396Z,32224.00
2019-06-20T07:47:16.642Z,45024.00
2019-06-20T07:48:02.700Z,42688.00
2019-06-20T07:49:02.674Z,61248.00
2019-06-20T07:50:02.703Z,42336.00
2019-06-20T07:51:02.660Z,31136.00
2019-06-20T07:52:02.670Z,26112.00
2019-06-20T07:53:03.062Z,24288.00
2019-06-20T07:54:02.639Z,25696.00
2019-06-20T07:55:02.635Z,30560.00
2019-06-20T07:56:02.641Z,32256.00
2019-06-20T07:57:02.654Z,30176.00
2019-06-20T07:58:02.638Z,30016.00
2019-06-20T07:59:02.607Z,29088.00
2019-06-20T08:00:02.622Z,26656.00
2019-06-20T08:01:02.599Z,24032.00
2019-06-20T08:02:02.600Z,24672.00
2019-06-20T08:03:02.583Z,29856.00
2019-06-20T08:04:02.813Z,29152.00
2019-06-20T08:05:02.574Z,31648.00
2019-06-20T08:06:02.564Z,84224.00
2019-06-20T08:07:02.559Z,120096.00
2019-06-20T08:08:02.669Z,71168.00
2019-06-20T08:09:02.542Z,110496.00
2019-06-20T08:10:02.917Z,111968.00
2019-06-20T08:11:02.643Z,110368.00
2019-06-20T08:12:02.527Z,103904.00
2019-06-20T08:13:02.527Z,108704.00
2019-06-20T08:14:02.528Z,111616.00
2019-06-20T08:15:14.562Z,97536.00
2019-06-20T08:16:03.807Z,80928.00
2019-06-20T08:17:02.513Z,94432.00
2019-06-20T08:18:02.509Z,114080.00
2019-06-20T08:19:02.504Z,119584.00
2019-06-20T08:20:02.503Z,121184.00
2019-06-20T08:21:02.521Z,109120.00
2019-06-20T08:22:02.518Z,113440.00
2019-06-20T08:23:02.496Z,114112.00
2019-06-20T08:24:02.496Z,108960.00
2019-06-20T08:25:03.322Z,96352.00
2019-06-20T08:26:02.639Z,80160.00
2019-06-20T08:27:03.250Z,69600.00
2019-06-20T08:28:02.571Z,54496.00
2019-06-20T08:29:14.946Z,52960.00
2019-06-20T08:30:03.541Z,51552.00
2019-06-20T08:31:02.646Z,49344.00
2019-06-20T08:32:02.776Z,50912.00
2019-06-20T08:33:07.618Z,52896.00
2019-06-20T08:34:02.493Z,59936.00
2019-06-20T08:35:02.562Z,68032.00
2019-06-20T08:36:02.495Z,72384.00
2019-06-20T08:37:02.494Z,69856.00
2019-06-20T08:38:03.798Z,51424.00
2019-06-20T08:39:02.691Z,79648.00
2019-06-20T08:40:02.498Z,24928.00
2019-06-20T08:41:02.497Z,67392.00
2019-06-20T08:42:02.497Z,59008.00
2019-06-20T08:43:04.006Z,58944.00
2019-06-20T08:44:02.504Z,19616.00
2019-06-20T08:45:03.857Z,58496.00
2019-06-20T08:46:04.064Z,58592.00
2019-06-20T08:47:03.796Z,46016.00
2019-06-20T08:48:02.793Z,64448.00
2019-06-20T08:49:03.590Z,65504.00
2019-06-20T08:50:03.780Z,68224.00
2019-06-20T08:51:02.509Z,68992.00
2019-06-20T08:52:03.515Z,71840.00
2019-06-20T08:53:03.608Z,77888.00
2019-06-20T08:54:03.409Z,71168.00
2019-06-20T08:55:03.391Z,71840.00
2019-06-20T08:56:03.192Z,51872.00
2019-06-20T08:57:04.032Z,50016.00
2019-06-20T08:58:03.414Z,46784.00
2019-06-20T08:59:02.677Z,74944.00
2019-06-20T09:07:05.549Z,43040.00
2019-06-20T09:09:02.551Z,33664.00
2019-06-20T09:10:04.179Z,51520.00
2019-06-20T09:11:03.929Z,46304.00
2019-06-20T09:12:02.553Z,51584.00
2019-06-20T09:13:03.780Z,45280.00
2019-06-20T09:14:04.027Z,42368.00
2019-06-20T09:15:03.230Z,40864.00
2019-06-20T09:16:03.091Z,40672.00
2019-06-20T09:17:02.930Z,39712.00
2019-06-20T09:18:02.917Z,38880.00
2019-06-20T09:19:02.647Z,37248.00
2019-06-20T09:20:02.959Z,36288.00
2019-06-20T09:21:02.569Z,30336.00
2019-06-20T09:22:02.554Z,26720.00
2019-06-20T09:23:03.307Z,41312.00
2019-06-20T09:24:02.550Z,49440.00
2019-06-20T09:25:02.943Z,34464.00
2019-06-20T09:26:03.827Z,35424.00
2019-06-20T09:27:04.265Z,58144.00
2019-06-20T09:28:02.731Z,64800.00
2019-06-20T09:29:04.064Z,38912.00
2019-06-20T09:30:03.477Z,28800.00
2019-06-20T09:31:03.990Z,48864.00
2019-06-20T09:32:02.555Z,35648.00
2019-06-20T09:33:02.541Z,45408.00
2019-06-20T09:34:05.344Z,40256.00
2019-06-20T09:35:02.988Z,37248.00
2019-06-20T09:36:03.921Z,35904.00
2019-06-20T09:37:03.937Z,34880.00
2019-06-20T09:38:03.468Z,82816.00
2019-06-20T09:39:03.811Z,68960.00
2019-06-20T09:40:03.664Z,92896.00
2019-06-20T09:41:03.459Z,24864.00
2019-06-20T09:42:03.423Z,21600.00
2019-06-20T09:43:02.876Z,21728.00
2019-06-20T09:44:03.159Z,32032.00
2019-06-20T09:45:02.931Z,37888.00
2019-06-20T09:46:02.670Z,26304.00
2019-06-20T09:47:02.559Z,26944.00
2019-06-20T09:48:02.786Z,105408.00
2019-06-20T09:49:02.755Z,76448.00
2019-06-20T09:50:02.525Z,32192.00
2019-06-20T09:51:02.527Z,24608.00
2019-06-20T09:52:02.546Z,22272.00
2019-06-20T09:53:02.523Z,20000.00
2019-06-20T09:54:02.522Z,20480.00
2019-06-20T09:55:02.523Z,22560.00
2019-06-20T09:56:02.519Z,22304.00
2019-06-20T09:57:02.514Z,26528.00
2019-06-20T09:58:02.528Z,27232.00
2019-06-20T09:59:02.524Z,25792.00
2019-06-20T10:00:09.733Z,23456.00
2019-06-20T10:01:02.512Z,23968.00
2019-06-20T10:02:02.607Z,27520.00
2019-06-20T10:03:02.505Z,28800.00
2019-06-20T10:04:02.704Z,26336.00
2019-06-20T10:05:02.503Z,23936.00
2019-06-20T10:06:12.887Z,25792.00
2019-06-20T10:07:02.535Z,26816.00
2019-06-20T10:08:02.518Z,30432.00
2019-06-20T10:09:02.509Z,31808.00
2019-06-20T10:10:02.486Z,44576.00
2019-06-20T10:11:02.503Z,43008.00
2019-06-20T10:12:02.486Z,29248.00
2019-06-20T10:13:02.480Z,36704.00
2019-06-20T10:14:02.479Z,28128.00
2019-06-20T10:15:02.478Z,38016.00
2019-06-20T10:16:02.542Z,26752.00
2019-06-20T10:17:02.474Z,46528.00
2019-06-20T10:18:02.473Z,33088.00
2019-06-20T10:19:02.469Z,30400.00
2019-06-20T10:20:02.471Z,28480.00
2019-06-20T10:21:02.508Z,34240.00
2019-06-20T10:22:02.464Z,68288.00
2019-06-20T10:23:02.473Z,100320.00
2019-06-20T10:24:02.463Z,26272.00
2019-06-20T10:25:02.471Z,22880.00
2019-06-20T10:26:02.464Z,21728.00
2019-06-20T10:27:02.455Z,22656.00
2019-06-20T10:28:02.451Z,71488.00
2019-06-20T10:29:02.512Z,67040.00
2019-06-20T10:30:13.834Z,65056.00
2019-06-20T10:31:02.446Z,50656.00
2019-06-20T10:32:02.462Z,40992.00
2019-06-20T10:33:02.438Z,32576.00
2019-06-20T10:34:02.440Z,22944.00
2019-06-20T10:35:02.443Z,26912.00
2019-06-20T10:36:02.439Z,33856.00
2019-06-20T10:37:02.435Z,34272.00
2019-06-20T10:38:02.434Z,28096.00
2019-06-20T10:39:02.427Z,31840.00
2019-06-20T10:40:02.439Z,50784.00
2019-06-20T10:41:02.429Z,33888.00
2019-06-20T10:42:02.425Z,51392.00
2019-06-20T10:43:02.430Z,27648.00
2019-06-20T10:44:02.422Z,48128.00
2019-06-20T10:45:02.421Z,25056.00
2019-06-20T10:46:02.417Z,20064.00
2019-06-20T10:47:02.632Z,21408.00
2019-06-20T10:48:02.414Z,24352.00
2019-06-20T10:49:02.417Z,25952.00
2019-06-20T10:50:02.423Z,26016.00
2019-06-20T10:51:02.408Z,26880.00
2019-06-20T10:52:02.403Z,29440.00
2019-06-20T10:53:02.402Z,24896.00
2019-06-20T10:54:02.397Z,23680.00
2019-06-20T10:55:02.405Z,26272.00
2019-06-20T10:56:02.392Z,28000.00
2019-06-20T10:57:02.393Z,25920.00
2019-06-20T10:58:02.387Z,22816.00
2019-06-20T10:59:02.385Z,21472.00
2019-06-20T11:00:02.408Z,21056.00
2019-06-20T11:01:02.380Z,22112.00
2019-06-20T11:02:02.373Z,25120.00
2019-06-20T11:03:02.380Z,28192.00
2019-06-20T11:04:02.412Z,30144.00
2019-06-20T11:05:02.361Z,31648.00
2019-06-20T11:06:02.359Z,38240.00
2019-06-20T11:07:02.376Z,42528.00
2019-06-20T11:08:02.390Z,45248.00
2019-06-20T11:09:02.355Z,31904.00
2019-06-20T11:10:02.404Z,30208.00
2019-06-20T11:11:02.343Z,28320.00
2019-06-20T11:12:02.346Z,26432.00
2019-06-20T11:13:02.333Z,24736.00
2019-06-20T11:14:02.337Z,22688.00
2019-06-20T11:15:02.397Z,20576.00
2019-06-20T11:16:02.325Z,18720.00
2019-06-20T11:17:02.333Z,16836.00
2019-06-20T11:18:02.519Z,15552.00
2019-06-20T11:19:02.309Z,14904.00
2019-06-20T11:20:03.024Z,14684.00
2019-06-20T11:21:02.323Z,14496.00
2019-06-20T11:22:02.307Z,14216.00
2019-06-20T11:23:02.480Z,14032.00
2019-06-20T11:24:02.302Z,14100.00
2019-06-20T11:25:02.291Z,14392.00
2019-06-20T11:26:02.307Z,14736.00
2019-06-20T11:27:02.279Z,14868.00
2019-06-20T11:28:02.294Z,14796.00
2019-06-20T11:29:02.268Z,14352.00
2019-06-20T11:30:02.257Z,13636.00
2019-06-20T11:31:02.253Z,12776.00
2019-06-20T11:32:02.251Z,11964.00
2019-06-20T11:33:02.251Z,11352.00
2019-06-20T11:34:02.243Z,10984.00
2019-06-20T11:35:02.231Z,10724.00
2019-06-20T11:36:02.226Z,10512.00
2019-06-20T11:37:02.215Z,10416.00
2019-06-20T11:38:02.275Z,10424.00
2019-06-20T11:39:02.209Z,10528.00
2019-06-20T11:40:02.205Z,10732.00
2019-06-20T11:41:02.195Z,10872.00
2019-06-20T11:42:02.189Z,10808.00
2019-06-20T11:43:02.181Z,10608.00
2019-06-20T11:44:02.177Z,10348.00
2019-06-20T11:45:02.172Z,10156.00
2019-06-20T11:46:02.170Z,10356.00
2019-06-20T11:47:02.156Z,11116.00
2019-06-20T11:48:02.148Z,12732.00
2019-06-20T11:49:02.144Z,15320.00
2019-06-20T11:50:02.144Z,18720.00
2019-06-20T11:51:02.140Z,20672.00
2019-06-20T11:52:02.137Z,21984.00
2019-06-20T11:53:02.126Z,23328.00
2019-06-20T11:54:02.117Z,23872.00
2019-06-20T11:55:02.100Z,23936.00
2019-06-20T11:56:02.184Z,23264.00
2019-06-20T11:57:02.093Z,22848.00
2019-06-20T11:58:02.102Z,22720.00
2019-06-20T11:59:02.078Z,22560.00
2019-06-20T12:00:02.093Z,22624.00
2019-06-20T12:01:03.997Z,22752.00
2019-06-20T12:02:02.058Z,22880.00
2019-06-20T12:03:02.088Z,23072.00
2019-06-20T12:04:02.048Z,23168.00
2019-06-20T12:05:02.043Z,23392.00
2019-06-20T12:06:02.030Z,23648.00
2019-06-20T12:07:02.028Z,23584.00
2019-06-20T12:08:02.025Z,23360.00
2019-06-20T12:09:02.019Z,23008.00
2019-06-20T12:10:02.012Z,22528.00
2019-06-20T12:11:02.116Z,21952.00
2019-06-20T12:12:01.995Z,21312.00
2019-06-20T12:13:01.987Z,20672.00
2019-06-20T12:14:01.982Z,20032.00
2019-06-20T12:15:01.976Z,19392.00
2019-06-20T12:16:01.962Z,18624.00
2019-06-20T12:17:01.964Z,17760.00
2019-06-20T12:18:01.959Z,17088.00